Hauptseite
METAR-TAF:

METAR-TAF

Flughäfen :

Christchurch International Airport

Christchurch, Neuseeland

Breite: 43-29S, Länge: 172-33E, Höhe: 38 m

Beobachtung

Neuester Wetterbericht von vor 16 Minuten, um 06:00 UTC
Wind 4 kt aus Ost
Temperatur 11°C
Luftfeuchtigkeit 66%
Luftdruck 1008 hPa
Sichtweite 10 km oder mehr

METAR: NZCH 100600Z AUTO 09004KT 9999 NCD 11/05 Q1008 NOSIG

Zeit: 18:16 (06:16 UTC)

Prognose

Neuester Wetterbericht von vor 1 Stunde und 12 Minuten, um 05:04 UTC
Gültige Prognose vom 10 um 06 UTC bis 11 um 06 UTC
Wind 10 kt aus Nordost
Sichtweite 10 km oder mehr
keine Wolken unter 1500 m und keine Kumulonimbus oder Gewitterwolken
Übergehend zu
vom 10 um 07 UTC bis 10 um 09 UTC
Wind 5 kt aus West/Nordwest
Übergehend zu
vom 10 um 22 UTC bis 11 um 00 UTC
Wind 10 kt aus Ost/Nordost

TAF: NZCH 100504Z 1006/1106 05010KT CAVOK BECMG 1007/1009 30005KT BECMG 1022/1100 06010KT

Wetterbeobachtungen und Prognosen von mehr als 4000 Flughäfen (METAR und TAF Bericht).

Die verfügbaren Stationen werden durch gelbe und rote Markierungen auf der Karte dargestellt.

Führen Sie die Maus auf sie, um den Namen der Station zu sehen.

Darauf klicken, um die Beobachtung von Wetterbeobachtungen und Prognosen zu sehen.

Um die Karte zu ändern : klicken Sie auf den grünen Tasten mit einem schwarzen Kreuz Zum Vergrößern, auf den grünen Button mit einem Gedankenstrich zu verkleinern, oder auf die grünen Pfeile für benachbarte Karten.


METAR-TAF: